sensor_id;sensor_type;location;lat;lon;timestamp;P1;durP1;ratioP1;P2;durP2;ratioP2
78372;SDS011;67656;52.074;4.758;2023-04-03T00:04:36;2.77;;;0.77;;
78372;SDS011;67656;52.074;4.758;2023-04-03T00:09:36;2.40;;;0.90;;
78372;SDS011;67656;52.074;4.758;2023-04-03T00:14:36;2.07;;;0.80;;
78372;SDS011;67656;52.074;4.758;2023-04-03T00:19:37;2.60;;;0.80;;
78372;SDS011;67656;52.074;4.758;2023-04-03T00:24:37;2.03;;;0.77;;
78372;SDS011;67656;52.074;4.758;2023-04-03T00:29:37;2.47;;;0.77;;
78372;SDS011;67656;52.074;4.758;2023-04-03T00:34:38;4.00;;;0.80;;
78372;SDS011;67656;52.074;4.758;2023-04-03T00:39:38;2.63;;;0.80;;
78372;SDS011;67656;52.074;4.758;2023-04-03T00:49:39;3.77;;;0.60;;
78372;SDS011;67656;52.074;4.758;2023-04-03T00:54:40;1.93;;;0.73;;
78372;SDS011;67656;52.074;4.758;2023-04-03T00:59:44;2.40;;;0.80;;
78372;SDS011;67656;52.074;4.758;2023-04-03T01:04:49;2.40;;;0.83;;
78372;SDS011;67656;52.074;4.758;2023-04-03T01:09:51;2.67;;;0.80;;
78372;SDS011;67656;52.074;4.758;2023-04-03T01:14:55;2.10;;;0.85;;
78372;SDS011;67656;52.074;4.758;2023-04-03T01:25:36;3.60;;;0.90;;
78372;SDS011;67656;52.074;4.758;2023-04-03T01:30:42;0.80;;;0.43;;
78372;SDS011;67656;52.074;4.758;2023-04-03T01:35:49;2.33;;;0.80;;
78372;SDS011;67656;52.074;4.758;2023-04-03T01:40:50;1.47;;;0.50;;
78372;SDS011;67656;52.074;4.758;2023-04-03T01:45:51;2.60;;;0.70;;
78372;SDS011;67656;52.074;4.758;2023-04-03T01:50:51;3.33;;;1.10;;
78372;SDS011;67656;52.074;4.758;2023-04-03T01:55:53;1.67;;;0.80;;
78372;SDS011;67656;52.074;4.758;2023-04-03T02:00:54;2.77;;;0.90;;
78372;SDS011;67656;52.074;4.758;2023-04-03T02:05:54;2.93;;;0.97;;
78372;SDS011;67656;52.074;4.758;2023-04-03T02:10:54;2.23;;;1.00;;
78372;SDS011;67656;52.074;4.758;2023-04-03T02:15:55;3.03;;;0.77;;
78372;SDS011;67656;52.074;4.758;2023-04-03T02:20:55;1.43;;;0.70;;
78372;SDS011;67656;52.074;4.758;2023-04-03T02:26:03;2.03;;;1.00;;
78372;SDS011;67656;52.074;4.758;2023-04-03T02:31:04;1.77;;;0.80;;
78372;SDS011;67656;52.074;4.758;2023-04-03T02:36:06;3.30;;;0.80;;
78372;SDS011;67656;52.074;4.758;2023-04-03T02:41:09;4.37;;;0.87;;
78372;SDS011;67656;52.074;4.758;2023-04-03T02:46:11;1.37;;;0.70;;
78372;SDS011;67656;52.074;4.758;2023-04-03T02:51:11;2.97;;;1.00;;
78372;SDS011;67656;52.074;4.758;2023-04-03T02:56:11;8.00;;;1.20;;
78372;SDS011;67656;52.074;4.758;2023-04-03T03:01:13;2.10;;;1.00;;
78372;SDS011;67656;52.074;4.758;2023-04-03T03:06:15;2.37;;;0.90;;
78372;SDS011;67656;52.074;4.758;2023-04-03T03:11:16;5.30;;;1.27;;
78372;SDS011;67656;52.074;4.758;2023-04-03T03:16:17;2.47;;;0.90;;
78372;SDS011;67656;52.074;4.758;2023-04-03T03:21:17;2.67;;;1.33;;
78372;SDS011;67656;52.074;4.758;2023-04-03T03:26:18;2.27;;;1.10;;
78372;SDS011;67656;52.074;4.758;2023-04-03T03:31:18;4.10;;;0.90;;
78372;SDS011;67656;52.074;4.758;2023-04-03T03:36:19;1.60;;;0.80;;
78372;SDS011;67656;52.074;4.758;2023-04-03T03:41:19;2.35;;;1.17;;
78372;SDS011;67656;52.074;4.758;2023-04-03T03:46:19;2.63;;;1.07;;
78372;SDS011;67656;52.074;4.758;2023-04-03T03:51:20;2.13;;;1.03;;
78372;SDS011;67656;52.074;4.758;2023-04-03T03:56:23;1.93;;;0.93;;
78372;SDS011;67656;52.074;4.758;2023-04-03T04:01:38;4.27;;;1.37;;
78372;SDS011;67656;52.074;4.758;2023-04-03T04:06:38;4.60;;;1.33;;
78372;SDS011;67656;52.074;4.758;2023-04-03T04:11:42;5.77;;;1.53;;
78372;SDS011;67656;52.074;4.758;2023-04-03T04:16:45;2.73;;;1.10;;
78372;SDS011;67656;52.074;4.758;2023-04-03T04:21:57;4.27;;;1.50;;
78372;SDS011;67656;52.074;4.758;2023-04-03T04:27:14;3.03;;;1.40;;
78372;SDS011;67656;52.074;4.758;2023-04-03T04:32:16;5.23;;;1.37;;
78372;SDS011;67656;52.074;4.758;2023-04-03T04:37:17;2.80;;;1.20;;
78372;SDS011;67656;52.074;4.758;2023-04-03T04:42:18;4.57;;;1.40;;
78372;SDS011;67656;52.074;4.758;2023-04-03T04:47:21;6.93;;;1.13;;
78372;SDS011;67656;52.074;4.758;2023-04-03T04:52:21;4.27;;;1.40;;
78372;SDS011;67656;52.074;4.758;2023-04-03T04:57:22;2.90;;;1.43;;
78372;SDS011;67656;52.074;4.758;2023-04-03T05:02:23;5.37;;;1.50;;
78372;SDS011;67656;52.074;4.758;2023-04-03T05:07:24;4.40;;;1.57;;
78372;SDS011;67656;52.074;4.758;2023-04-03T05:12:25;2.47;;;1.33;;
78372;SDS011;67656;52.074;4.758;2023-04-03T05:17:31;4.97;;;1.50;;
78372;SDS011;67656;52.074;4.758;2023-04-03T05:22:32;3.97;;;1.60;;
78372;SDS011;67656;52.074;4.758;2023-04-03T05:27:39;10.00;;;2.50;;
78372;SDS011;67656;52.074;4.758;2023-04-03T05:32:39;3.07;;;1.60;;
78372;SDS011;67656;52.074;4.758;2023-04-03T05:37:51;4.07;;;1.90;;
78372;SDS011;67656;52.074;4.758;2023-04-03T05:42:52;3.20;;;1.63;;
78372;SDS011;67656;52.074;4.758;2023-04-03T05:47:53;4.10;;;1.80;;
78372;SDS011;67656;52.074;4.758;2023-04-03T05:52:55;4.00;;;1.90;;
78372;SDS011;67656;52.074;4.758;2023-04-03T05:58:18;3.33;;;1.40;;
78372;SDS011;67656;52.074;4.758;2023-04-03T06:09:17;3.57;;;1.73;;
78372;SDS011;67656;52.074;4.758;2023-04-03T06:14:19;2.63;;;1.50;;
78372;SDS011;67656;52.074;4.758;2023-04-03T06:19:19;6.47;;;1.50;;
78372;SDS011;67656;52.074;4.758;2023-04-03T06:24:43;3.47;;;1.40;;
78372;SDS011;67656;52.074;4.758;2023-04-03T06:29:44;5.43;;;1.53;;
78372;SDS011;67656;52.074;4.758;2023-04-03T06:40:27;1.98;;;1.10;;
78372;SDS011;67656;52.074;4.758;2023-04-03T06:45:27;2.38;;;1.15;;
78372;SDS011;67656;52.074;4.758;2023-04-03T06:56:11;3.97;;;1.27;;
78372;SDS011;67656;52.074;4.758;2023-04-03T07:01:13;2.83;;;1.08;;
78372;SDS011;67656;52.074;4.758;2023-04-03T07:06:17;2.67;;;1.30;;
78372;SDS011;67656;52.074;4.758;2023-04-03T07:11:24;4.22;;;1.40;;
78372;SDS011;67656;52.074;4.758;2023-04-03T07:16:37;3.88;;;1.30;;
78372;SDS011;67656;52.074;4.758;2023-04-03T07:21:40;5.35;;;1.20;;
78372;SDS011;67656;52.074;4.758;2023-04-03T07:26:40;4.30;;;1.15;;
78372;SDS011;67656;52.074;4.758;2023-04-03T07:31:42;5.70;;;1.05;;
78372;SDS011;67656;52.074;4.758;2023-04-03T07:36:42;4.53;;;1.30;;
78372;SDS011;67656;52.074;4.758;2023-04-03T07:41:43;4.78;;;1.02;;
78372;SDS011;67656;52.074;4.758;2023-04-03T07:46:43;4.65;;;1.20;;
78372;SDS011;67656;52.074;4.758;2023-04-03T07:51:44;2.83;;;1.15;;
78372;SDS011;67656;52.074;4.758;2023-04-03T07:56:45;3.15;;;1.10;;
78372;SDS011;67656;52.074;4.758;2023-04-03T08:01:45;4.85;;;1.20;;
78372;SDS011;67656;52.074;4.758;2023-04-03T08:06:46;2.60;;;1.20;;
78372;SDS011;67656;52.074;4.758;2023-04-03T08:11:59;2.63;;;1.00;;
78372;SDS011;67656;52.074;4.758;2023-04-03T08:17:03;6.20;;;1.00;;
78372;SDS011;67656;52.074;4.758;2023-04-03T08:27:08;2.78;;;0.90;;
78372;SDS011;67656;52.074;4.758;2023-04-03T08:32:15;2.42;;;0.90;;
78372;SDS011;67656;52.074;4.758;2023-04-03T08:37:23;2.88;;;1.08;;
78372;SDS011;67656;52.074;4.758;2023-04-03T08:48:06;3.50;;;0.95;;
78372;SDS011;67656;52.074;4.758;2023-04-03T08:53:14;1.90;;;0.80;;
78372;SDS011;67656;52.074;4.758;2023-04-03T09:03:38;3.40;;;0.82;;
78372;SDS011;67656;52.074;4.758;2023-04-03T09:08:49;2.42;;;0.60;;
78372;SDS011;67656;52.074;4.758;2023-04-03T09:13:59;3.00;;;0.47;;
78372;SDS011;67656;52.074;4.758;2023-04-03T09:24:32;3.03;;;1.40;;
78372;SDS011;67656;52.074;4.758;2023-04-03T09:29:34;2.85;;;0.85;;
78372;SDS011;67656;52.074;4.758;2023-04-03T09:34:38;2.22;;;0.50;;
78372;SDS011;67656;52.074;4.758;2023-04-03T09:39:49;3.72;;;0.60;;
78372;SDS011;67656;52.074;4.758;2023-04-03T09:44:55;2.17;;;0.77;;
78372;SDS011;67656;52.074;4.758;2023-04-03T09:55:22;3.80;;;0.60;;
78372;SDS011;67656;52.074;4.758;2023-04-03T10:00:31;2.83;;;0.80;;
78372;SDS011;67656;52.074;4.758;2023-04-03T10:05:39;1.23;;;0.50;;
78372;SDS011;67656;52.074;4.758;2023-04-03T10:10:42;1.42;;;0.70;;
78372;SDS011;67656;52.074;4.758;2023-04-03T10:15:54;2.42;;;0.70;;
78372;SDS011;67656;52.074;4.758;2023-04-03T10:21:02;1.20;;;0.70;;
78372;SDS011;67656;52.074;4.758;2023-04-03T10:26:17;1.50;;;0.57;;
78372;SDS011;67656;52.074;4.758;2023-04-03T10:31:23;2.10;;;0.70;;
78372;SDS011;67656;52.074;4.758;2023-04-03T10:36:45;1.67;;;0.60;;
78372;SDS011;67656;52.074;4.758;2023-04-03T10:42:00;1.23;;;0.60;;
78372;SDS011;67656;52.074;4.758;2023-04-03T10:47:21;1.15;;;0.70;;
78372;SDS011;67656;52.074;4.758;2023-04-03T10:52:42;1.27;;;0.73;;
78372;SDS011;67656;52.074;4.758;2023-04-03T10:57:59;1.77;;;0.40;;
78372;SDS011;67656;52.074;4.758;2023-04-03T11:03:03;1.00;;;0.40;;
78372;SDS011;67656;52.074;4.758;2023-04-03T11:08:15;0.80;;;0.40;;
78372;SDS011;67656;52.074;4.758;2023-04-03T11:13:19;1.17;;;0.50;;
78372;SDS011;67656;52.074;4.758;2023-04-03T11:23:54;0.68;;;0.35;;
78372;SDS011;67656;52.074;4.758;2023-04-03T11:29:06;1.37;;;0.30;;
78372;SDS011;67656;52.074;4.758;2023-04-03T11:39:25;1.00;;;0.30;;
78372;SDS011;67656;52.074;4.758;2023-04-03T11:44:30;0.20;;;0.20;;
78372;SDS011;67656;52.074;4.758;2023-04-03T11:54:50;0.77;;;0.30;;
78372;SDS011;67656;52.074;4.758;2023-04-03T11:59:50;0.95;;;0.20;;
78372;SDS011;67656;52.074;4.758;2023-04-03T12:05:33;1.50;;;0.60;;
78372;SDS011;67656;52.074;4.758;2023-04-03T12:10:27;0.95;;;0.40;;
78372;SDS011;67656;52.074;4.758;2023-04-03T12:15:43;0.60;;;0.38;;
78372;SDS011;67656;52.074;4.758;2023-04-03T12:25:49;1.17;;;0.30;;
78372;SDS011;67656;52.074;4.758;2023-04-03T12:30:50;1.08;;;0.50;;
78372;SDS011;67656;52.074;4.758;2023-04-03T12:35:56;2.58;;;0.60;;
78372;SDS011;67656;52.074;4.758;2023-04-03T12:41:18;1.17;;;0.45;;
78372;SDS011;67656;52.074;4.758;2023-04-03T12:46:33;0.68;;;0.40;;
78372;SDS011;67656;52.074;4.758;2023-04-03T12:51:37;2.80;;;0.60;;
78372;SDS011;67656;52.074;4.758;2023-04-03T12:56:45;0.88;;;0.40;;
78372;SDS011;67656;52.074;4.758;2023-04-03T13:01:52;2.20;;;0.50;;
78372;SDS011;67656;52.074;4.758;2023-04-03T13:06:58;2.88;;;0.50;;
78372;SDS011;67656;52.074;4.758;2023-04-03T13:12:03;1.83;;;0.50;;
78372;SDS011;67656;52.074;4.758;2023-04-03T13:17:16;1.48;;;0.55;;
78372;SDS011;67656;52.074;4.758;2023-04-03T13:27:33;1.25;;;0.50;;
78372;SDS011;67656;52.074;4.758;2023-04-03T13:32:34;2.55;;;0.65;;
78372;SDS011;67656;52.074;4.758;2023-04-03T13:37:34;2.60;;;0.60;;
78372;SDS011;67656;52.074;4.758;2023-04-03T13:42:36;1.85;;;0.70;;
78372;SDS011;67656;52.074;4.758;2023-04-03T13:47:40;1.05;;;0.50;;
78372;SDS011;67656;52.074;4.758;2023-04-03T13:52:43;2.08;;;0.50;;
78372;SDS011;67656;52.074;4.758;2023-04-03T14:02:57;1.35;;;0.50;;
78372;SDS011;67656;52.074;4.758;2023-04-03T14:07:57;2.00;;;0.73;;
78372;SDS011;67656;52.074;4.758;2023-04-03T14:12:58;1.35;;;0.47;;
78372;SDS011;67656;52.074;4.758;2023-04-03T14:17:58;1.42;;;0.50;;
78372;SDS011;67656;52.074;4.758;2023-04-03T14:22:59;1.00;;;0.40;;
78372;SDS011;67656;52.074;4.758;2023-04-03T14:27:59;1.04;;;0.64;;
78372;SDS011;67656;52.074;4.758;2023-04-03T14:33:00;2.13;;;0.60;;
78372;SDS011;67656;52.074;4.758;2023-04-03T14:38:01;1.67;;;0.60;;
78372;SDS011;67656;52.074;4.758;2023-04-03T14:43:01;1.75;;;0.90;;
78372;SDS011;67656;52.074;4.758;2023-04-03T14:48:02;1.95;;;0.65;;
78372;SDS011;67656;52.074;4.758;2023-04-03T14:53:03;3.30;;;0.70;;
78372;SDS011;67656;52.074;4.758;2023-04-03T14:58:03;3.03;;;1.05;;
78372;SDS011;67656;52.074;4.758;2023-04-03T15:03:03;1.23;;;0.65;;
78372;SDS011;67656;52.074;4.758;2023-04-03T15:08:04;2.05;;;0.63;;
78372;SDS011;67656;52.074;4.758;2023-04-03T15:13:04;1.67;;;1.00;;
78372;SDS011;67656;52.074;4.758;2023-04-03T15:18:05;1.55;;;0.90;;
78372;SDS011;67656;52.074;4.758;2023-04-03T15:23:05;1.48;;;0.70;;
78372;SDS011;67656;52.074;4.758;2023-04-03T15:28:06;2.22;;;0.80;;
78372;SDS011;67656;52.074;4.758;2023-04-03T15:33:08;1.33;;;0.57;;
78372;SDS011;67656;52.074;4.758;2023-04-03T15:38:09;2.08;;;0.70;;
78372;SDS011;67656;52.074;4.758;2023-04-03T15:43:09;1.55;;;0.70;;
78372;SDS011;67656;52.074;4.758;2023-04-03T15:48:10;2.35;;;0.75;;
78372;SDS011;67656;52.074;4.758;2023-04-03T15:53:10;0.98;;;0.55;;
78372;SDS011;67656;52.074;4.758;2023-04-03T15:58:11;3.58;;;0.80;;
78372;SDS011;67656;52.074;4.758;2023-04-03T16:03:12;2.08;;;0.80;;
78372;SDS011;67656;52.074;4.758;2023-04-03T16:08:15;1.65;;;0.70;;
78372;SDS011;67656;52.074;4.758;2023-04-03T16:13:16;2.28;;;0.95;;
78372;SDS011;67656;52.074;4.758;2023-04-03T16:18:16;2.33;;;0.80;;
78372;SDS011;67656;52.074;4.758;2023-04-03T16:23:17;1.05;;;0.80;;
78372;SDS011;67656;52.074;4.758;2023-04-03T16:28:18;1.25;;;0.60;;
78372;SDS011;67656;52.074;4.758;2023-04-03T16:33:18;1.33;;;0.50;;
78372;SDS011;67656;52.074;4.758;2023-04-03T16:38:19;1.13;;;0.70;;
78372;SDS011;67656;52.074;4.758;2023-04-03T16:43:19;4.18;;;0.82;;
78372;SDS011;67656;52.074;4.758;2023-04-03T16:48:19;3.42;;;0.88;;
78372;SDS011;67656;52.074;4.758;2023-04-03T16:53:29;3.50;;;0.82;;
78372;SDS011;67656;52.074;4.758;2023-04-03T16:58:42;1.90;;;0.80;;
78372;SDS011;67656;52.074;4.758;2023-04-03T17:03:43;2.85;;;0.65;;
78372;SDS011;67656;52.074;4.758;2023-04-03T17:08:45;2.80;;;0.75;;
78372;SDS011;67656;52.074;4.758;2023-04-03T17:14:00;2.05;;;0.73;;
78372;SDS011;67656;52.074;4.758;2023-04-03T17:19:00;2.05;;;0.80;;
78372;SDS011;67656;52.074;4.758;2023-04-03T17:24:02;1.70;;;0.80;;
78372;SDS011;67656;52.074;4.758;2023-04-03T17:29:05;1.25;;;0.70;;
78372;SDS011;67656;52.074;4.758;2023-04-03T17:34:06;1.37;;;0.73;;
78372;SDS011;67656;52.074;4.758;2023-04-03T17:39:09;1.67;;;0.70;;
78372;SDS011;67656;52.074;4.758;2023-04-03T17:44:09;1.03;;;0.60;;
78372;SDS011;67656;52.074;4.758;2023-04-03T17:49:10;4.10;;;0.70;;
78372;SDS011;67656;52.074;4.758;2023-04-03T17:54:10;2.67;;;0.90;;
78372;SDS011;67656;52.074;4.758;2023-04-03T17:59:11;3.67;;;1.17;;
78372;SDS011;67656;52.074;4.758;2023-04-03T18:04:11;2.60;;;0.80;;
78372;SDS011;67656;52.074;4.758;2023-04-03T18:09:18;2.83;;;0.67;;
78372;SDS011;67656;52.074;4.758;2023-04-03T18:14:23;1.80;;;0.73;;
78372;SDS011;67656;52.074;4.758;2023-04-03T18:19:25;3.47;;;0.77;;
78372;SDS011;67656;52.074;4.758;2023-04-03T18:24:26;4.20;;;1.00;;
78372;SDS011;67656;52.074;4.758;2023-04-03T18:29:28;2.27;;;0.70;;
78372;SDS011;67656;52.074;4.758;2023-04-03T18:34:31;2.57;;;0.70;;
78372;SDS011;67656;52.074;4.758;2023-04-03T18:39:32;3.77;;;1.00;;
78372;SDS011;67656;52.074;4.758;2023-04-03T18:44:32;2.27;;;0.70;;
78372;SDS011;67656;52.074;4.758;2023-04-03T18:49:35;4.17;;;0.87;;
78372;SDS011;67656;52.074;4.758;2023-04-03T18:54:38;3.03;;;0.90;;
78372;SDS011;67656;52.074;4.758;2023-04-03T18:59:38;2.33;;;0.97;;
78372;SDS011;67656;52.074;4.758;2023-04-03T19:04:39;5.80;;;0.90;;
78372;SDS011;67656;52.074;4.758;2023-04-03T19:09:40;3.03;;;0.90;;
78372;SDS011;67656;52.074;4.758;2023-04-03T19:14:40;1.47;;;0.70;;
78372;SDS011;67656;52.074;4.758;2023-04-03T19:19:40;4.17;;;1.30;;
78372;SDS011;67656;52.074;4.758;2023-04-03T19:24:41;2.73;;;1.10;;
78372;SDS011;67656;52.074;4.758;2023-04-03T19:29:41;1.90;;;1.00;;
78372;SDS011;67656;52.074;4.758;2023-04-03T19:34:41;2.90;;;1.33;;
78372;SDS011;67656;52.074;4.758;2023-04-03T19:39:42;2.17;;;0.87;;
78372;SDS011;67656;52.074;4.758;2023-04-03T19:44:42;3.87;;;1.00;;
78372;SDS011;67656;52.074;4.758;2023-04-03T19:49:42;2.67;;;1.00;;
78372;SDS011;67656;52.074;4.758;2023-04-03T19:54:43;3.10;;;1.10;;
78372;SDS011;67656;52.074;4.758;2023-04-03T19:59:43;1.80;;;0.93;;
78372;SDS011;67656;52.074;4.758;2023-04-03T20:04:49;1.97;;;0.90;;
78372;SDS011;67656;52.074;4.758;2023-04-03T20:09:50;3.23;;;1.20;;
78372;SDS011;67656;52.074;4.758;2023-04-03T20:14:50;3.73;;;1.10;;
78372;SDS011;67656;52.074;4.758;2023-04-03T20:19:50;3.57;;;1.00;;
78372;SDS011;67656;52.074;4.758;2023-04-03T20:24:51;2.05;;;0.90;;
78372;SDS011;67656;52.074;4.758;2023-04-03T20:29:51;3.17;;;1.30;;
78372;SDS011;67656;52.074;4.758;2023-04-03T20:34:52;3.50;;;1.40;;
78372;SDS011;67656;52.074;4.758;2023-04-03T20:39:52;4.23;;;1.30;;
78372;SDS011;67656;52.074;4.758;2023-04-03T20:44:53;2.40;;;1.07;;
78372;SDS011;67656;52.074;4.758;2023-04-03T20:49:53;4.03;;;1.03;;
78372;SDS011;67656;52.074;4.758;2023-04-03T20:54:53;3.70;;;1.20;;
78372;SDS011;67656;52.074;4.758;2023-04-03T20:59:54;6.28;;;1.40;;
78372;SDS011;67656;52.074;4.758;2023-04-03T21:04:54;2.83;;;1.10;;
78372;SDS011;67656;52.074;4.758;2023-04-03T21:20:48;2.67;;;1.10;;
78372;SDS011;67656;52.074;4.758;2023-04-03T21:25:48;2.37;;;1.03;;
78372;SDS011;67656;52.074;4.758;2023-04-03T21:30:49;3.47;;;1.40;;
78372;SDS011;67656;52.074;4.758;2023-04-03T21:35:49;2.60;;;1.40;;
78372;SDS011;67656;52.074;4.758;2023-04-03T21:40:50;4.60;;;1.53;;
78372;SDS011;67656;52.074;4.758;2023-04-03T21:45:53;4.73;;;1.53;;
78372;SDS011;67656;52.074;4.758;2023-04-03T21:51:01;3.53;;;1.40;;
78372;SDS011;67656;52.074;4.758;2023-04-03T21:56:03;4.27;;;2.00;;
78372;SDS011;67656;52.074;4.758;2023-04-03T22:01:07;4.37;;;1.83;;
78372;SDS011;67656;52.074;4.758;2023-04-03T22:06:13;4.17;;;1.70;;
78372;SDS011;67656;52.074;4.758;2023-04-03T22:11:14;8.27;;;1.87;;
78372;SDS011;67656;52.074;4.758;2023-04-03T22:16:15;3.63;;;1.50;;
78372;SDS011;67656;52.074;4.758;2023-04-03T22:21:15;3.67;;;1.60;;
78372;SDS011;67656;52.074;4.758;2023-04-03T22:26:16;3.87;;;1.70;;
78372;SDS011;67656;52.074;4.758;2023-04-03T22:31:16;4.53;;;1.73;;
78372;SDS011;67656;52.074;4.758;2023-04-03T22:36:17;3.47;;;1.53;;
78372;SDS011;67656;52.074;4.758;2023-04-03T22:41:17;4.23;;;1.57;;
78372;SDS011;67656;52.074;4.758;2023-04-03T22:46:17;3.70;;;1.60;;
78372;SDS011;67656;52.074;4.758;2023-04-03T22:51:18;4.25;;;1.70;;
78372;SDS011;67656;52.074;4.758;2023-04-03T22:56:18;2.90;;;1.50;;
78372;SDS011;67656;52.074;4.758;2023-04-03T23:01:18;5.43;;;1.48;;
78372;SDS011;67656;52.074;4.758;2023-04-03T23:06:18;4.40;;;1.73;;
78372;SDS011;67656;52.074;4.758;2023-04-03T23:11:19;4.25;;;1.58;;
78372;SDS011;67656;52.074;4.758;2023-04-03T23:16:19;4.22;;;1.60;;
78372;SDS011;67656;52.074;4.758;2023-04-03T23:21:19;6.72;;;1.40;;
78372;SDS011;67656;52.074;4.758;2023-04-03T23:26:20;3.87;;;1.53;;
78372;SDS011;67656;52.074;4.758;2023-04-03T23:31:20;4.83;;;1.60;;
78372;SDS011;67656;52.074;4.758;2023-04-03T23:36:21;3.67;;;1.63;;
78372;SDS011;67656;52.074;4.758;2023-04-03T23:41:22;2.65;;;1.45;;
78372;SDS011;67656;52.074;4.758;2023-04-03T23:46:22;2.57;;;1.23;;
78372;SDS011;67656;52.074;4.758;2023-04-03T23:51:22;2.83;;;1.43;;
78372;SDS011;67656;52.074;4.758;2023-04-03T23:56:23;4.07;;;1.60;;
